sensor_id;sensor_type;location;lat;lon;timestamp;P1;durP1;ratioP1;P2;durP2;ratioP2
40204;SDS011;26963;42.666;23.366;2024-02-28T00:01:15;25.63;;;17.40;;
40204;SDS011;26963;42.666;23.366;2024-02-28T00:03:41;20.88;;;15.70;;
40204;SDS011;26963;42.666;23.366;2024-02-28T00:06:07;23.83;;;15.80;;
40204;SDS011;26963;42.666;23.366;2024-02-28T00:08:32;22.40;;;17.00;;
40204;SDS011;26963;42.666;23.366;2024-02-28T00:10:58;25.85;;;17.77;;
40204;SDS011;26963;42.666;23.366;2024-02-28T00:13:24;25.90;;;17.45;;
40204;SDS011;26963;42.666;23.366;2024-02-28T00:15:50;26.20;;;17.13;;
40204;SDS011;26963;42.666;23.366;2024-02-28T00:18:15;21.67;;;16.45;;
40204;SDS011;26963;42.666;23.366;2024-02-28T00:20:43;27.10;;;17.08;;
40204;SDS011;26963;42.666;23.366;2024-02-28T00:23:10;23.00;;;17.70;;
40204;SDS011;26963;42.666;23.366;2024-02-28T00:25:36;24.08;;;16.33;;
40204;SDS011;26963;42.666;23.366;2024-02-28T00:28:01;26.67;;;17.35;;
40204;SDS011;26963;42.666;23.366;2024-02-28T00:30:27;24.02;;;17.70;;
40204;SDS011;26963;42.666;23.366;2024-02-28T00:32:53;25.00;;;17.35;;
40204;SDS011;26963;42.666;23.366;2024-02-28T00:35:19;25.77;;;18.20;;
40204;SDS011;26963;42.666;23.366;2024-02-28T00:37:45;23.88;;;17.15;;
40204;SDS011;26963;42.666;23.366;2024-02-28T00:40:11;25.02;;;18.25;;
40204;SDS011;26963;42.666;23.366;2024-02-28T00:42:37;26.48;;;18.35;;
40204;SDS011;26963;42.666;23.366;2024-02-28T00:45:03;25.30;;;18.52;;
40204;SDS011;26963;42.666;23.366;2024-02-28T00:47:29;30.10;;;18.13;;
40204;SDS011;26963;42.666;23.366;2024-02-28T00:49:54;26.23;;;18.75;;
40204;SDS011;26963;42.666;23.366;2024-02-28T00:52:20;26.35;;;18.65;;
40204;SDS011;26963;42.666;23.366;2024-02-28T00:54:45;26.33;;;19.75;;
40204;SDS011;26963;42.666;23.366;2024-02-28T00:57:11;29.35;;;19.23;;
40204;SDS011;26963;42.666;23.366;2024-02-28T00:59:37;28.30;;;18.30;;
40204;SDS011;26963;42.666;23.366;2024-02-28T01:02:02;28.35;;;18.55;;
40204;SDS011;26963;42.666;23.366;2024-02-28T01:04:28;26.63;;;19.27;;
40204;SDS011;26963;42.666;23.366;2024-02-28T01:06:54;28.70;;;18.77;;
40204;SDS011;26963;42.666;23.366;2024-02-28T01:09:20;24.35;;;18.67;;
40204;SDS011;26963;42.666;23.366;2024-02-28T01:11:47;27.38;;;19.48;;
40204;SDS011;26963;42.666;23.366;2024-02-28T01:14:12;25.35;;;19.35;;
40204;SDS011;26963;42.666;23.366;2024-02-28T01:16:38;23.90;;;19.35;;
40204;SDS011;26963;42.666;23.366;2024-02-28T01:19:03;25.92;;;20.35;;
40204;SDS011;26963;42.666;23.366;2024-02-28T01:21:29;26.08;;;20.20;;
40204;SDS011;26963;42.666;23.366;2024-02-28T01:23:55;26.50;;;19.73;;
40204;SDS011;26963;42.666;23.366;2024-02-28T01:26:20;25.52;;;20.00;;
40204;SDS011;26963;42.666;23.366;2024-02-28T01:28:47;29.45;;;20.33;;
40204;SDS011;26963;42.666;23.366;2024-02-28T01:31:14;27.90;;;19.45;;
40204;SDS011;26963;42.666;23.366;2024-02-28T01:33:39;29.00;;;19.23;;
40204;SDS011;26963;42.666;23.366;2024-02-28T01:36:08;30.58;;;20.27;;
40204;SDS011;26963;42.666;23.366;2024-02-28T01:38:36;29.30;;;21.05;;
40204;SDS011;26963;42.666;23.366;2024-02-28T01:41:01;27.98;;;19.73;;
40204;SDS011;26963;42.666;23.366;2024-02-28T01:43:27;26.70;;;19.38;;
40204;SDS011;26963;42.666;23.366;2024-02-28T01:45:53;30.05;;;20.52;;
40204;SDS011;26963;42.666;23.366;2024-02-28T01:48:18;30.02;;;20.52;;
40204;SDS011;26963;42.666;23.366;2024-02-28T01:50:44;27.58;;;21.38;;
40204;SDS011;26963;42.666;23.366;2024-02-28T01:53:11;28.52;;;19.55;;
40204;SDS011;26963;42.666;23.366;2024-02-28T01:55:38;30.90;;;20.40;;
40204;SDS011;26963;42.666;23.366;2024-02-28T01:58:04;29.88;;;20.75;;
40204;SDS011;26963;42.666;23.366;2024-02-28T02:00:32;31.05;;;20.65;;
40204;SDS011;26963;42.666;23.366;2024-02-28T02:03:00;31.27;;;21.35;;
40204;SDS011;26963;42.666;23.366;2024-02-28T02:05:26;28.70;;;20.45;;
40204;SDS011;26963;42.666;23.366;2024-02-28T02:07:52;32.28;;;21.95;;
40204;SDS011;26963;42.666;23.366;2024-02-28T02:10:18;33.17;;;21.73;;
40204;SDS011;26963;42.666;23.366;2024-02-28T02:12:44;30.23;;;20.73;;
40204;SDS011;26963;42.666;23.366;2024-02-28T02:15:09;28.13;;;21.35;;
40204;SDS011;26963;42.666;23.366;2024-02-28T02:17:35;29.35;;;21.88;;
40204;SDS011;26963;42.666;23.366;2024-02-28T02:20:01;28.98;;;21.60;;
40204;SDS011;26963;42.666;23.366;2024-02-28T02:22:34;29.38;;;20.02;;
40204;SDS011;26963;42.666;23.366;2024-02-28T02:25:03;29.75;;;19.52;;
40204;SDS011;26963;42.666;23.366;2024-02-28T02:27:29;29.10;;;20.98;;
40204;SDS011;26963;42.666;23.366;2024-02-28T02:29:55;31.40;;;22.08;;
40204;SDS011;26963;42.666;23.366;2024-02-28T02:32:20;30.80;;;22.00;;
40204;SDS011;26963;42.666;23.366;2024-02-28T02:34:46;31.00;;;20.60;;
40204;SDS011;26963;42.666;23.366;2024-02-28T02:37:12;30.85;;;21.92;;
40204;SDS011;26963;42.666;23.366;2024-02-28T02:39:37;26.77;;;20.35;;
40204;SDS011;26963;42.666;23.366;2024-02-28T02:42:03;30.70;;;22.13;;
40204;SDS011;26963;42.666;23.366;2024-02-28T02:44:28;29.60;;;19.52;;
40204;SDS011;26963;42.666;23.366;2024-02-28T02:46:54;29.35;;;21.88;;
40204;SDS011;26963;42.666;23.366;2024-02-28T02:49:20;29.73;;;21.85;;
40204;SDS011;26963;42.666;23.366;2024-02-28T02:51:45;29.85;;;20.55;;
40204;SDS011;26963;42.666;23.366;2024-02-28T02:54:11;27.65;;;21.08;;
40204;SDS011;26963;42.666;23.366;2024-02-28T02:56:36;29.88;;;21.38;;
40204;SDS011;26963;42.666;23.366;2024-02-28T02:59:02;30.13;;;21.15;;
40204;SDS011;26963;42.666;23.366;2024-02-28T03:01:28;34.03;;;21.98;;
40204;SDS011;26963;42.666;23.366;2024-02-28T03:03:53;28.92;;;21.20;;
40204;SDS011;26963;42.666;23.366;2024-02-28T03:06:19;30.77;;;21.35;;
40204;SDS011;26963;42.666;23.366;2024-02-28T03:08:46;31.20;;;21.23;;
40204;SDS011;26963;42.666;23.366;2024-02-28T03:11:11;33.80;;;21.27;;
40204;SDS011;26963;42.666;23.366;2024-02-28T03:13:37;28.27;;;19.85;;
40204;SDS011;26963;42.666;23.366;2024-02-28T03:16:05;27.30;;;17.90;;
40204;SDS011;26963;42.666;23.366;2024-02-28T03:18:31;23.08;;;17.52;;
40204;SDS011;26963;42.666;23.366;2024-02-28T03:20:57;28.60;;;19.90;;
40204;SDS011;26963;42.666;23.366;2024-02-28T03:23:23;36.42;;;22.20;;
40204;SDS011;26963;42.666;23.366;2024-02-28T03:25:49;29.38;;;21.17;;
40204;SDS011;26963;42.666;23.366;2024-02-28T03:28:14;29.75;;;20.63;;
40204;SDS011;26963;42.666;23.366;2024-02-28T03:30:40;28.10;;;20.13;;
40204;SDS011;26963;42.666;23.366;2024-02-28T03:33:06;29.88;;;20.83;;
40204;SDS011;26963;42.666;23.366;2024-02-28T03:35:33;30.95;;;20.35;;
40204;SDS011;26963;42.666;23.366;2024-02-28T03:37:58;26.92;;;20.20;;
40204;SDS011;26963;42.666;23.366;2024-02-28T03:40:24;29.73;;;20.08;;
40204;SDS011;26963;42.666;23.366;2024-02-28T03:42:49;28.40;;;20.15;;
40204;SDS011;26963;42.666;23.366;2024-02-28T03:45:15;30.38;;;20.52;;
40204;SDS011;26963;42.666;23.366;2024-02-28T03:47:41;31.98;;;20.63;;
40204;SDS011;26963;42.666;23.366;2024-02-28T03:50:06;28.58;;;21.73;;
40204;SDS011;26963;42.666;23.366;2024-02-28T03:52:32;30.70;;;21.05;;
40204;SDS011;26963;42.666;23.366;2024-02-28T03:54:58;32.20;;;21.40;;
40204;SDS011;26963;42.666;23.366;2024-02-28T03:57:23;29.75;;;19.77;;
40204;SDS011;26963;42.666;23.366;2024-02-28T03:59:49;32.92;;;21.40;;
40204;SDS011;26963;42.666;23.366;2024-02-28T04:02:14;26.42;;;20.58;;
40204;SDS011;26963;42.666;23.366;2024-02-28T04:04:40;32.33;;;21.60;;
40204;SDS011;26963;42.666;23.366;2024-02-28T04:07:06;28.42;;;20.27;;
40204;SDS011;26963;42.666;23.366;2024-02-28T04:09:31;27.67;;;19.65;;
40204;SDS011;26963;42.666;23.366;2024-02-28T04:11:57;28.65;;;20.00;;
40204;SDS011;26963;42.666;23.366;2024-02-28T04:14:22;30.35;;;19.30;;
40204;SDS011;26963;42.666;23.366;2024-02-28T04:16:48;27.75;;;19.08;;
40204;SDS011;26963;42.666;23.366;2024-02-28T04:19:15;28.23;;;20.10;;
40204;SDS011;26963;42.666;23.366;2024-02-28T04:22:01;26.85;;;19.08;;
40204;SDS011;26963;42.666;23.366;2024-02-28T04:24:27;26.70;;;20.67;;
40204;SDS011;26963;42.666;23.366;2024-02-28T04:26:52;28.50;;;20.70;;
40204;SDS011;26963;42.666;23.366;2024-02-28T04:29:18;32.15;;;20.20;;
40204;SDS011;26963;42.666;23.366;2024-02-28T04:31:44;32.05;;;21.88;;
40204;SDS011;26963;42.666;23.366;2024-02-28T04:34:09;29.15;;;20.83;;
40204;SDS011;26963;42.666;23.366;2024-02-28T04:36:35;29.42;;;21.27;;
40204;SDS011;26963;42.666;23.366;2024-02-28T04:39:01;35.65;;;22.60;;
40204;SDS011;26963;42.666;23.366;2024-02-28T04:41:27;32.85;;;21.73;;
40204;SDS011;26963;42.666;23.366;2024-02-28T04:43:53;34.25;;;21.75;;
40204;SDS011;26963;42.666;23.366;2024-02-28T04:46:19;32.15;;;21.75;;
40204;SDS011;26963;42.666;23.366;2024-02-28T04:48:44;34.15;;;21.95;;
40204;SDS011;26963;42.666;23.366;2024-02-28T04:51:10;29.90;;;22.95;;
40204;SDS011;26963;42.666;23.366;2024-02-28T04:53:35;37.67;;;23.30;;
40204;SDS011;26963;42.666;23.366;2024-02-28T04:56:01;31.67;;;23.70;;
40204;SDS011;26963;42.666;23.366;2024-02-28T04:58:27;36.35;;;23.52;;
40204;SDS011;26963;42.666;23.366;2024-02-28T05:00:52;33.25;;;22.13;;
40204;SDS011;26963;42.666;23.366;2024-02-28T05:03:18;39.65;;;23.30;;
40204;SDS011;26963;42.666;23.366;2024-02-28T05:05:44;32.10;;;22.95;;
40204;SDS011;26963;42.666;23.366;2024-02-28T05:08:10;38.35;;;23.80;;
40204;SDS011;26963;42.666;23.366;2024-02-28T05:10:36;34.35;;;24.20;;
40204;SDS011;26963;42.666;23.366;2024-02-28T05:13:01;36.13;;;23.63;;
40204;SDS011;26963;42.666;23.366;2024-02-28T05:15:28;35.60;;;25.15;;
40204;SDS011;26963;42.666;23.366;2024-02-28T05:17:54;35.38;;;24.13;;
40204;SDS011;26963;42.666;23.366;2024-02-28T05:20:20;35.28;;;21.40;;
40204;SDS011;26963;42.666;23.366;2024-02-28T05:22:46;32.70;;;23.90;;
40204;SDS011;26963;42.666;23.366;2024-02-28T05:25:11;31.67;;;22.45;;
40204;SDS011;26963;42.666;23.366;2024-02-28T05:27:37;31.83;;;22.83;;
40204;SDS011;26963;42.666;23.366;2024-02-28T05:30:02;34.88;;;23.33;;
40204;SDS011;26963;42.666;23.366;2024-02-28T05:32:31;35.65;;;23.92;;
40204;SDS011;26963;42.666;23.366;2024-02-28T05:34:58;35.00;;;24.48;;
40204;SDS011;26963;42.666;23.366;2024-02-28T05:37:23;34.50;;;24.23;;
40204;SDS011;26963;42.666;23.366;2024-02-28T05:39:51;38.03;;;24.25;;
40204;SDS011;26963;42.666;23.366;2024-02-28T05:42:17;33.97;;;22.60;;
40204;SDS011;26963;42.666;23.366;2024-02-28T05:44:49;38.97;;;25.23;;
40204;SDS011;26963;42.666;23.366;2024-02-28T05:47:15;37.17;;;24.63;;
40204;SDS011;26963;42.666;23.366;2024-02-28T05:49:42;39.38;;;23.50;;
40204;SDS011;26963;42.666;23.366;2024-02-28T05:52:07;39.35;;;24.00;;
40204;SDS011;26963;42.666;23.366;2024-02-28T05:54:33;35.70;;;23.20;;
40204;SDS011;26963;42.666;23.366;2024-02-28T05:56:59;35.22;;;23.27;;
40204;SDS011;26963;42.666;23.366;2024-02-28T05:59:25;38.22;;;23.40;;
40204;SDS011;26963;42.666;23.366;2024-02-28T06:01:51;37.45;;;24.23;;
40204;SDS011;26963;42.666;23.366;2024-02-28T06:04:17;36.72;;;24.02;;
40204;SDS011;26963;42.666;23.366;2024-02-28T06:06:43;36.40;;;23.77;;
40204;SDS011;26963;42.666;23.366;2024-02-28T06:09:08;35.25;;;24.23;;
40204;SDS011;26963;42.666;23.366;2024-02-28T06:11:34;37.22;;;24.73;;
40204;SDS011;26963;42.666;23.366;2024-02-28T06:14:00;40.00;;;24.10;;
40204;SDS011;26963;42.666;23.366;2024-02-28T06:16:27;33.92;;;23.45;;
40204;SDS011;26963;42.666;23.366;2024-02-28T06:18:53;38.45;;;24.65;;
40204;SDS011;26963;42.666;23.366;2024-02-28T06:21:21;33.80;;;24.70;;
40204;SDS011;26963;42.666;23.366;2024-02-28T06:23:51;37.33;;;26.48;;
40204;SDS011;26963;42.666;23.366;2024-02-28T06:26:17;39.08;;;26.58;;
40204;SDS011;26963;42.666;23.366;2024-02-28T06:28:43;32.97;;;24.45;;
40204;SDS011;26963;42.666;23.366;2024-02-28T06:31:14;41.53;;;25.75;;
40204;SDS011;26963;42.666;23.366;2024-02-28T06:33:41;37.08;;;25.58;;
40204;SDS011;26963;42.666;23.366;2024-02-28T06:36:07;40.95;;;26.65;;
40204;SDS011;26963;42.666;23.366;2024-02-28T06:38:33;39.70;;;26.08;;
40204;SDS011;26963;42.666;23.366;2024-02-28T06:41:01;39.28;;;27.08;;
40204;SDS011;26963;42.666;23.366;2024-02-28T06:43:33;36.47;;;26.95;;
40204;SDS011;26963;42.666;23.366;2024-02-28T06:45:59;36.53;;;23.95;;
40204;SDS011;26963;42.666;23.366;2024-02-28T06:48:25;43.03;;;28.45;;
40204;SDS011;26963;42.666;23.366;2024-02-28T06:50:50;37.63;;;25.52;;
40204;SDS011;26963;42.666;23.366;2024-02-28T06:53:16;33.90;;;23.05;;
40204;SDS011;26963;42.666;23.366;2024-02-28T06:55:42;34.90;;;24.27;;
40204;SDS011;26963;42.666;23.366;2024-02-28T06:58:09;36.10;;;24.85;;
40204;SDS011;26963;42.666;23.366;2024-02-28T07:00:35;35.67;;;25.08;;
40204;SDS011;26963;42.666;23.366;2024-02-28T07:03:00;36.92;;;24.95;;
40204;SDS011;26963;42.666;23.366;2024-02-28T07:05:26;34.42;;;24.73;;
40204;SDS011;26963;42.666;23.366;2024-02-28T07:07:52;35.28;;;23.73;;
40204;SDS011;26963;42.666;23.366;2024-02-28T07:10:17;35.58;;;25.15;;
40204;SDS011;26963;42.666;23.366;2024-02-28T07:12:43;33.35;;;23.55;;
40204;SDS011;26963;42.666;23.366;2024-02-28T07:15:08;32.15;;;23.00;;
40204;SDS011;26963;42.666;23.366;2024-02-28T07:17:37;31.60;;;22.10;;
40204;SDS011;26963;42.666;23.366;2024-02-28T07:20:03;35.78;;;23.35;;
40204;SDS011;26963;42.666;23.366;2024-02-28T07:22:29;32.65;;;23.73;;
40204;SDS011;26963;42.666;23.366;2024-02-28T07:24:55;32.25;;;22.38;;
40204;SDS011;26963;42.666;23.366;2024-02-28T07:27:23;35.38;;;24.73;;
40204;SDS011;26963;42.666;23.366;2024-02-28T07:29:49;35.25;;;24.52;;
40204;SDS011;26963;42.666;23.366;2024-02-28T07:32:15;29.80;;;22.35;;
40204;SDS011;26963;42.666;23.366;2024-02-28T07:34:40;34.42;;;23.42;;
40204;SDS011;26963;42.666;23.366;2024-02-28T07:37:07;34.15;;;22.10;;
40204;SDS011;26963;42.666;23.366;2024-02-28T07:39:33;30.23;;;22.17;;
40204;SDS011;26963;42.666;23.366;2024-02-28T07:41:58;31.10;;;22.58;;
40204;SDS011;26963;42.666;23.366;2024-02-28T07:44:25;29.98;;;21.85;;
40204;SDS011;26963;42.666;23.366;2024-02-28T07:46:50;29.30;;;22.45;;
40204;SDS011;26963;42.666;23.366;2024-02-28T07:49:16;28.42;;;21.70;;
40204;SDS011;26963;42.666;23.366;2024-02-28T07:51:42;29.20;;;21.40;;
40204;SDS011;26963;42.666;23.366;2024-02-28T07:54:10;32.42;;;22.27;;
40204;SDS011;26963;42.666;23.366;2024-02-28T07:56:41;29.85;;;22.35;;
40204;SDS011;26963;42.666;23.366;2024-02-28T07:59:07;29.35;;;22.25;;
40204;SDS011;26963;42.666;23.366;2024-02-28T08:01:32;31.23;;;23.55;;
40204;SDS011;26963;42.666;23.366;2024-02-28T08:03:58;31.27;;;22.83;;
40204;SDS011;26963;42.666;23.366;2024-02-28T08:06:24;30.45;;;23.25;;
40204;SDS011;26963;42.666;23.366;2024-02-28T08:08:50;26.50;;;22.88;;
40204;SDS011;26963;42.666;23.366;2024-02-28T08:11:16;33.50;;;25.33;;
40204;SDS011;26963;42.666;23.366;2024-02-28T08:13:42;33.25;;;24.42;;
40204;SDS011;26963;42.666;23.366;2024-02-28T08:16:09;29.92;;;21.42;;
40204;SDS011;26963;42.666;23.366;2024-02-28T08:18:35;31.38;;;23.10;;
40204;SDS011;26963;42.666;23.366;2024-02-28T08:21:01;28.88;;;22.15;;
40204;SDS011;26963;42.666;23.366;2024-02-28T08:23:29;31.80;;;23.73;;
40204;SDS011;26963;42.666;23.366;2024-02-28T08:25:55;34.92;;;24.90;;
40204;SDS011;26963;42.666;23.366;2024-02-28T08:28:20;31.05;;;23.75;;
40204;SDS011;26963;42.666;23.366;2024-02-28T08:30:46;32.35;;;24.52;;
40204;SDS011;26963;42.666;23.366;2024-02-28T08:33:11;30.95;;;24.38;;
40204;SDS011;26963;42.666;23.366;2024-02-28T08:35:37;30.35;;;21.45;;
40204;SDS011;26963;42.666;23.366;2024-02-28T08:38:03;32.15;;;23.75;;
40204;SDS011;26963;42.666;23.366;2024-02-28T08:40:29;32.08;;;22.00;;
40204;SDS011;26963;42.666;23.366;2024-02-28T08:42:55;31.20;;;22.67;;
40204;SDS011;26963;42.666;23.366;2024-02-28T08:45:22;31.90;;;24.35;;
40204;SDS011;26963;42.666;23.366;2024-02-28T08:47:48;26.55;;;23.30;;
40204;SDS011;26963;42.666;23.366;2024-02-28T08:50:13;28.40;;;22.55;;
40204;SDS011;26963;42.666;23.366;2024-02-28T08:52:39;30.20;;;22.42;;
40204;SDS011;26963;42.666;23.366;2024-02-28T08:55:05;27.15;;;21.63;;
40204;SDS011;26963;42.666;23.366;2024-02-28T08:57:31;30.65;;;23.10;;
40204;SDS011;26963;42.666;23.366;2024-02-28T08:59:57;29.73;;;23.63;;
40204;SDS011;26963;42.666;23.366;2024-02-28T09:02:22;32.65;;;22.98;;
40204;SDS011;26963;42.666;23.366;2024-02-28T09:04:48;31.48;;;22.42;;
40204;SDS011;26963;42.666;23.366;2024-02-28T09:07:17;35.22;;;22.48;;
40204;SDS011;26963;42.666;23.366;2024-02-28T09:09:44;29.38;;;22.05;;
40204;SDS011;26963;42.666;23.366;2024-02-28T09:12:11;30.33;;;21.98;;
40204;SDS011;26963;42.666;23.366;2024-02-28T09:14:36;27.15;;;22.17;;
40204;SDS011;26963;42.666;23.366;2024-02-28T09:17:02;27.55;;;20.90;;
40204;SDS011;26963;42.666;23.366;2024-02-28T09:19:31;29.00;;;21.33;;
40204;SDS011;26963;42.666;23.366;2024-02-28T09:21:57;30.30;;;20.67;;
40204;SDS011;26963;42.666;23.366;2024-02-28T09:24:23;33.03;;;22.65;;
40204;SDS011;26963;42.666;23.366;2024-02-28T09:26:50;30.67;;;20.25;;
40204;SDS011;26963;42.666;23.366;2024-02-28T09:29:15;26.60;;;21.27;;
40204;SDS011;26963;42.666;23.366;2024-02-28T09:31:41;24.55;;;19.77;;
40204;SDS011;26963;42.666;23.366;2024-02-28T09:34:06;30.73;;;20.58;;
40204;SDS011;26963;42.666;23.366;2024-02-28T09:36:43;26.80;;;20.38;;
40204;SDS011;26963;42.666;23.366;2024-02-28T09:39:14;27.00;;;20.67;;
40204;SDS011;26963;42.666;23.366;2024-02-28T09:41:43;28.63;;;19.80;;
40204;SDS011;26963;42.666;23.366;2024-02-28T09:44:08;27.50;;;20.25;;
40204;SDS011;26963;42.666;23.366;2024-02-28T09:46:35;28.55;;;19.15;;
40204;SDS011;26963;42.666;23.366;2024-02-28T09:49:02;28.13;;;19.15;;
40204;SDS011;26963;42.666;23.366;2024-02-28T09:51:30;26.45;;;18.75;;
40204;SDS011;26963;42.666;23.366;2024-02-28T09:53:59;21.25;;;16.15;;
40204;SDS011;26963;42.666;23.366;2024-02-28T09:56:27;21.58;;;16.55;;
40204;SDS011;26963;42.666;23.366;2024-02-28T09:58:54;22.10;;;17.85;;
40204;SDS011;26963;42.666;23.366;2024-02-28T10:01:21;25.60;;;18.35;;
40204;SDS011;26963;42.666;23.366;2024-02-28T10:03:47;27.10;;;17.85;;
40204;SDS011;26963;42.666;23.366;2024-02-28T10:06:17;21.23;;;16.73;;
40204;SDS011;26963;42.666;23.366;2024-02-28T10:08:43;22.33;;;16.38;;
40204;SDS011;26963;42.666;23.366;2024-02-28T10:11:17;23.50;;;16.92;;
40204;SDS011;26963;42.666;23.366;2024-02-28T10:13:43;29.20;;;18.63;;
40204;SDS011;26963;42.666;23.366;2024-02-28T10:16:09;23.23;;;18.45;;
40204;SDS011;26963;42.666;23.366;2024-02-28T10:18:34;27.10;;;18.83;;
40204;SDS011;26963;42.666;23.366;2024-02-28T10:21:00;29.10;;;19.50;;
40204;SDS011;26963;42.666;23.366;2024-02-28T10:23:27;24.55;;;18.63;;
40204;SDS011;26963;42.666;23.366;2024-02-28T10:25:53;30.45;;;19.30;;
40204;SDS011;26963;42.666;23.366;2024-02-28T10:28:18;29.25;;;17.63;;
40204;SDS011;26963;42.666;23.366;2024-02-28T10:30:44;23.80;;;16.48;;
40204;SDS011;26963;42.666;23.366;2024-02-28T10:33:13;20.73;;;15.93;;
40204;SDS011;26963;42.666;23.366;2024-02-28T10:35:40;20.27;;;13.10;;
40204;SDS011;26963;42.666;23.366;2024-02-28T10:38:10;20.98;;;14.88;;
40204;SDS011;26963;42.666;23.366;2024-02-28T10:40:39;23.42;;;13.68;;
40204;SDS011;26963;42.666;23.366;2024-02-28T10:43:09;19.90;;;13.43;;
40204;SDS011;26963;42.666;23.366;2024-02-28T10:45:36;24.27;;;12.93;;
40204;SDS011;26963;42.666;23.366;2024-02-28T10:48:06;23.02;;;13.27;;
40204;SDS011;26963;42.666;23.366;2024-02-28T10:50:33;14.60;;;10.93;;
40204;SDS011;26963;42.666;23.366;2024-02-28T10:53:00;15.73;;;11.80;;
40204;SDS011;26963;42.666;23.366;2024-02-28T10:55:34;15.20;;;11.70;;
40204;SDS011;26963;42.666;23.366;2024-02-28T10:58:03;18.25;;;12.85;;
40204;SDS011;26963;42.666;23.366;2024-02-28T11:00:32;18.42;;;13.30;;
40204;SDS011;26963;42.666;23.366;2024-02-28T11:03:00;20.10;;;13.35;;
40204;SDS011;26963;42.666;23.366;2024-02-28T11:05:38;19.73;;;13.27;;
40204;SDS011;26963;42.666;23.366;2024-02-28T11:08:08;21.40;;;13.23;;
40204;SDS011;26963;42.666;23.366;2024-02-28T11:10:35;18.48;;;12.95;;
40204;SDS011;26963;42.666;23.366;2024-02-28T11:13:05;17.05;;;12.15;;
40204;SDS011;26963;42.666;23.366;2024-02-28T11:15:31;19.40;;;13.00;;
40204;SDS011;26963;42.666;23.366;2024-02-28T11:18:06;19.40;;;12.20;;
40204;SDS011;26963;42.666;23.366;2024-02-28T11:20:35;16.65;;;11.55;;
40204;SDS011;26963;42.666;23.366;2024-02-28T11:23:01;15.32;;;11.07;;
40204;SDS011;26963;42.666;23.366;2024-02-28T11:25:26;15.55;;;11.18;;
40204;SDS011;26963;42.666;23.366;2024-02-28T11:27:52;16.58;;;11.05;;
40204;SDS011;26963;42.666;23.366;2024-02-28T11:30:19;14.38;;;10.70;;
40204;SDS011;26963;42.666;23.366;2024-02-28T11:32:45;15.63;;;10.52;;
40204;SDS011;26963;42.666;23.366;2024-02-28T11:35:10;15.95;;;10.27;;
40204;SDS011;26963;42.666;23.366;2024-02-28T11:37:37;14.85;;;10.30;;
40204;SDS011;26963;42.666;23.366;2024-02-28T11:40:07;13.63;;;9.65;;
40204;SDS011;26963;42.666;23.366;2024-02-28T11:42:37;12.52;;;9.80;;
40204;SDS011;26963;42.666;23.366;2024-02-28T11:45:03;12.65;;;10.38;;
40204;SDS011;26963;42.666;23.366;2024-02-28T11:47:34;14.80;;;10.35;;
40204;SDS011;26963;42.666;23.366;2024-02-28T11:50:03;16.73;;;10.00;;
40204;SDS011;26963;42.666;23.366;2024-02-28T11:52:32;16.65;;;10.10;;
40204;SDS011;26963;42.666;23.366;2024-02-28T11:54:58;16.80;;;10.13;;
40204;SDS011;26963;42.666;23.366;2024-02-28T11:57:25;14.50;;;10.95;;
40204;SDS011;26963;42.666;23.366;2024-02-28T11:59:51;13.05;;;9.77;;
40204;SDS011;26963;42.666;23.366;2024-02-28T12:02:17;15.52;;;10.70;;
40204;SDS011;26963;42.666;23.366;2024-02-28T12:04:43;13.38;;;9.48;;
40204;SDS011;26963;42.666;23.366;2024-02-28T12:07:10;12.25;;;8.32;;
40204;SDS011;26963;42.666;23.366;2024-02-28T12:09:36;13.15;;;8.93;;
40204;SDS011;26963;42.666;23.366;2024-02-28T12:12:02;14.02;;;9.43;;
40204;SDS011;26963;42.666;23.366;2024-02-28T12:14:31;16.40;;;9.98;;
40204;SDS011;26963;42.666;23.366;2024-02-28T12:16:58;13.30;;;9.45;;
40204;SDS011;26963;42.666;23.366;2024-02-28T12:19:24;15.40;;;9.73;;
40204;SDS011;26963;42.666;23.366;2024-02-28T12:21:50;14.88;;;10.05;;
40204;SDS011;26963;42.666;23.366;2024-02-28T12:24:16;15.18;;;9.80;;
40204;SDS011;26963;42.666;23.366;2024-02-28T12:26:42;14.02;;;10.30;;
40204;SDS011;26963;42.666;23.366;2024-02-28T12:29:07;13.18;;;8.73;;
40204;SDS011;26963;42.666;23.366;2024-02-28T12:31:35;15.48;;;10.05;;
40204;SDS011;26963;42.666;23.366;2024-02-28T12:34:02;16.60;;;9.75;;
40204;SDS011;26963;42.666;23.366;2024-02-28T12:36:29;14.82;;;9.25;;
40204;SDS011;26963;42.666;23.366;2024-02-28T12:38:56;14.30;;;10.00;;
40204;SDS011;26963;42.666;23.366;2024-02-28T12:41:24;14.02;;;9.60;;
40204;SDS011;26963;42.666;23.366;2024-02-28T12:43:49;15.48;;;9.70;;
40204;SDS011;26963;42.666;23.366;2024-02-28T12:46:15;11.98;;;8.73;;
40204;SDS011;26963;42.666;23.366;2024-02-28T12:48:41;12.73;;;8.65;;
40204;SDS011;26963;42.666;23.366;2024-02-28T12:51:08;13.32;;;8.70;;
40204;SDS011;26963;42.666;23.366;2024-02-28T12:53:36;15.68;;;8.95;;
40204;SDS011;26963;42.666;23.366;2024-02-28T12:56:02;11.15;;;8.18;;
40204;SDS011;26963;42.666;23.366;2024-02-28T12:58:28;13.18;;;8.00;;
40204;SDS011;26963;42.666;23.366;2024-02-28T13:00:53;13.38;;;8.30;;
40204;SDS011;26963;42.666;23.366;2024-02-28T13:03:19;12.48;;;7.97;;
40204;SDS011;26963;42.666;23.366;2024-02-28T13:05:45;13.05;;;7.38;;
40204;SDS011;26963;42.666;23.366;2024-02-28T13:08:10;14.18;;;8.20;;
40204;SDS011;26963;42.666;23.366;2024-02-28T13:10:36;12.30;;;7.82;;
40204;SDS011;26963;42.666;23.366;2024-02-28T13:13:06;12.00;;;6.70;;
40204;SDS011;26963;42.666;23.366;2024-02-28T13:15:32;15.20;;;7.60;;
40204;SDS011;26963;42.666;23.366;2024-02-28T13:17:59;10.23;;;6.47;;
40204;SDS011;26963;42.666;23.366;2024-02-28T13:20:26;14.32;;;8.60;;
40204;SDS011;26963;42.666;23.366;2024-02-28T13:22:52;13.82;;;8.55;;
40204;SDS011;26963;42.666;23.366;2024-02-28T13:25:18;13.95;;;8.57;;
40204;SDS011;26963;42.666;23.366;2024-02-28T13:27:47;10.48;;;7.03;;
40204;SDS011;26963;42.666;23.366;2024-02-28T13:30:13;9.55;;;6.68;;
40204;SDS011;26963;42.666;23.366;2024-02-28T13:32:40;13.82;;;7.28;;
40204;SDS011;26963;42.666;23.366;2024-02-28T13:35:06;11.07;;;7.88;;
40204;SDS011;26963;42.666;23.366;2024-02-28T13:37:32;13.63;;;7.50;;
40204;SDS011;26963;42.666;23.366;2024-02-28T13:39:58;15.20;;;7.03;;
40204;SDS011;26963;42.666;23.366;2024-02-28T13:42:24;15.23;;;6.88;;
40204;SDS011;26963;42.666;23.366;2024-02-28T13:44:50;12.15;;;7.00;;
40204;SDS011;26963;42.666;23.366;2024-02-28T13:47:16;13.30;;;6.00;;
40204;SDS011;26963;42.666;23.366;2024-02-28T13:49:42;16.33;;;6.40;;
40204;SDS011;26963;42.666;23.366;2024-02-28T13:52:07;12.32;;;6.70;;
40204;SDS011;26963;42.666;23.366;2024-02-28T13:54:33;15.02;;;8.75;;
40204;SDS011;26963;42.666;23.366;2024-02-28T13:57:00;12.98;;;7.20;;
40204;SDS011;26963;42.666;23.366;2024-02-28T13:59:26;15.48;;;10.35;;
40204;SDS011;26963;42.666;23.366;2024-02-28T14:01:52;15.63;;;8.57;;
40204;SDS011;26963;42.666;23.366;2024-02-28T14:04:18;9.60;;;6.07;;
40204;SDS011;26963;42.666;23.366;2024-02-28T14:06:44;11.23;;;6.88;;